Time;durP1;ratioP1;P1;durP2;ratioP2;P2;SDS_P1;SDS_P2;PMS_P1;PMS_P2;Temp;Humidity;BMP_temperature;BMP_pressure;BME280_temperature;BME280_humidity;BME280_pressure;Samples;Min_cycle;Max_cycle;Signal;HPM_P1;HPM_P2
2022/10/15 00:01:36;;;;;;;24.73;17.48;;;256.60;2252.80;;;;;;5034908;28;20029;-83
2022/10/15 00:04:03;;;;;;;37.15;20.75;;;;;;;;;;5034694;28;20375;-83
2022/10/15 00:06:29;;;;;;;32.63;20.30;;;;;;;;;;5068134;28;20030;-83
2022/10/15 00:08:55;;;;;;;24.23;17.23;;;281.80;2278.40;;;;;;5067671;28;20108;-83
2022/10/15 00:11:24;;;;;;;30.50;19.27;;;256.70;2252.80;;;;;;5034607;28;20550;-84
2022/10/15 00:13:52;;;;;;;25.08;15.50;;;256.90;2252.80;;;;;;5034216;28;20026;-83
2022/10/15 00:16:21;;;;;;;24.15;14.00;;;256.90;2252.80;;;;;;5034760;28;20080;-83
2022/10/15 00:18:48;;;;;;;21.17;13.55;;;256.90;2252.80;;;;;;5034309;28;20021;-84
2022/10/15 00:21:16;;;;;;;28.95;14.32;;;256.90;2252.80;;;;;;5034815;28;20494;-86
2022/10/15 00:23:43;;;;;;;22.73;13.77;;;256.90;2252.80;;;;;;5034731;28;20034;-85
2022/10/15 00:26:18;;;;;;;22.10;14.20;;;256.90;2252.80;;;;;;5034302;28;20064;-84
2022/10/15 00:28:44;;;;;;;24.42;16.33;;;256.50;2252.80;;;;;;5034469;28;20030;-85
2022/10/15 00:31:13;;;;;;;19.45;13.50;;;256.50;2252.80;;;;;;5034284;28;20079;-84
2022/10/15 00:33:40;;;;;;;21.52;14.43;;;;;;;;;;5035748;28;20037;-83
2022/10/15 00:36:08;;;;;;;22.90;13.25;;;;;;;;;;5067606;28;20025;-83
2022/10/15 00:38:35;;;;;;;20.83;13.48;;;;;;;;;;5067621;28;20463;-83
2022/10/15 00:41:01;;;;;;;18.60;12.73;;;;;;;;;;5067474;28;20120;-84
2022/10/15 00:43:36;;;;;;;25.33;14.52;;;;;;;;;;5035516;28;20451;-83
2022/10/15 00:46:03;;;;;;;28.83;15.48;;;231.20;2252.80;;;;;;5067213;28;20018;-84
2022/10/15 00:48:30;;;;;;;21.48;13.93;;;231.10;2252.80;;;;;;5034253;28;20022;-84
2022/10/15 00:50:56;;;;;;;21.13;13.70;;;231.10;2252.80;;;;;;5035393;28;20032;-83
2022/10/15 00:53:22;;;;;;;18.63;13.70;;;231.10;2252.80;;;;;;5034935;28;20390;-83
2022/10/15 00:55:49;;;;;;;23.65;14.77;;;231.20;2252.80;;;;;;5034166;28;20072;-83
2022/10/15 00:58:21;;;;;;;18.40;12.65;;;231.10;2252.80;;;;;;5035020;28;20044;-84
2022/10/15 01:00:47;;;;;;;20.67;13.38;;;230.90;2252.80;;;;;;5035250;28;20044;-83
2022/10/15 01:03:13;;;;;;;16.85;11.65;;;;;;;;;;5035005;28;20475;-83
2022/10/15 01:05:40;;;;;;;18.13;12.50;;;;;;;;;;5067287;28;20029;-84
2022/10/15 01:08:06;;;;;;;28.92;17.90;;;;;;;;;;5066937;28;20022;-84
2022/10/15 01:10:39;;;;;;;21.95;14.25;;;;;;;;;;5067125;28;20029;-84
2022/10/15 01:13:15;;;;;;;24.77;14.88;;;;;;;;;;5066971;28;20032;-84
2022/10/15 01:15:49;;;;;;;19.50;14.02;;;;;;;;;;5066852;28;20021;-84
2022/10/15 01:18:20;;;;;;;16.58;11.20;;;;;;;;;;5067000;28;20555;-84
2022/10/15 01:21:07;;;;;;;24.02;14.77;;;;;;;;;;5066628;28;20474;-83
2022/10/15 01:23:48;;;;;;;30.50;19.83;;;;;;;;;;5066851;28;20629;-84
2022/10/15 01:26:25;;;;;;;26.30;17.90;;;;;;;;;;5066322;28;20467;-81
2022/10/15 01:29:03;;;;;;;23.02;15.18;;;;;;;;;;5066219;28;20029;-84
2022/10/15 01:31:48;;;;;;;39.78;20.05;;;;;;;;;;5066938;28;20025;-84
2022/10/15 01:34:33;;;;;;;41.50;21.20;;;;;;;;;;5066831;28;20025;-84
2022/10/15 01:37:05;;;;;;;32.90;17.55;;;;;;;;;;5066592;28;20048;-84
2022/10/15 01:39:33;;;;;;;33.50;18.17;;;;;;;;;;5066198;28;20065;-84
2022/10/15 01:42:06;;;;;;;27.73;15.00;;;;;;;;;;5083818;28;20025;-83
2022/10/15 01:44:41;;;;;;;23.02;13.57;;;231.20;2252.80;;;;;;5053167;28;20360;-84
2022/10/15 01:47:15;;;;;;;23.88;15.43;;;231.00;2252.80;;;;;;5053216;28;20465;-84
2022/10/15 01:49:44;;;;;;;30.55;17.83;;;231.00;2252.80;;;;;;5052759;28;20075;-84
2022/10/15 01:52:13;;;;;;;26.52;16.75;;;;;;;;;;5053039;28;20051;-84
2022/10/15 01:54:40;;;;;;;25.63;13.85;;;;;;;;;;5052998;28;20059;-84
2022/10/15 01:57:07;;;;;;;24.52;15.18;;;;;;;;;;5052771;28;20021;-84
2022/10/15 01:59:34;;;;;;;24.85;13.15;;;;;;;;;;5054085;28;20029;-84
2022/10/15 02:02:00;;;;;;;27.42;13.05;;;;;;;;;;5052954;28;20029;-84
2022/10/15 02:04:27;;;;;;;18.10;11.95;;;;;;;;;;5052593;28;20563;-84
2022/10/15 02:07:14;;;;;;;19.88;11.88;;;;;;;;;;5052843;28;20052;-84
2022/10/15 02:10:02;;;;;;;23.15;12.50;;;231.00;2252.80;;;;;;5002706;28;20079;-84
2022/10/15 02:12:46;;;;;;;20.98;12.85;;;230.90;2252.80;;;;;;5052836;28;20067;-84
2022/10/15 02:15:23;;;;;;;19.77;12.43;;;;;;;;;;5052785;28;20025;-83
2022/10/15 02:17:55;;;;;;;22.38;12.82;;;;;;;;;;5053603;28;20013;-84
2022/10/15 02:20:26;;;;;;;18.63;11.63;;;;;;;;;;5053793;28;20032;-84
2022/10/15 02:23:00;;;;;;;22.77;13.75;;;;;;;;;;5052704;28;20037;-84
2022/10/15 02:25:27;;;;;;;30.42;14.68;;;;;;;;;;5052502;28;20025;-84
2022/10/15 02:27:55;;;;;;;25.42;14.70;;;;;;;;;;5053799;28;20055;-84
2022/10/15 02:30:21;;;;;;;26.83;13.10;;;;;;;;;;5052469;28;20041;-84
2022/10/15 02:32:50;;;;;;;23.85;13.18;;;;;;;;;;5052333;28;20022;-84
2022/10/15 02:35:16;;;;;;;25.20;14.00;;;;;;;;;;5052551;28;20025;-84
2022/10/15 02:37:47;;;;;;;20.35;13.70;;;230.70;2252.80;;;;;;5056419;28;20466;-83
2022/10/15 02:40:13;;;;;;;24.33;14.10;;;230.50;2252.80;;;;;;5056542;28;20171;-84
2022/10/15 02:42:39;;;;;;;22.33;13.90;;;;;;;;;;5056565;28;20108;-83
2022/10/15 02:45:06;;;;;;;25.38;14.38;;;;;;;;;;5056355;28;20470;-83
2022/10/15 02:47:32;;;;;;;25.23;12.90;;;;;;;;;;5056528;28;20025;-84
2022/10/15 02:49:58;;;;;;;22.35;12.23;;;;;;;;;;5056938;28;20056;-84
2022/10/15 02:52:24;;;;;;;23.55;14.07;;;;;;;;;;5056055;28;20053;-84
2022/10/15 02:54:50;;;;;;;19.77;12.30;;;;;;;;;;5055365;28;20017;-84
2022/10/15 02:57:16;;;;;;;20.15;11.35;;;;;;;;;;5057576;28;20053;-83
2022/10/15 02:59:42;;;;;;;24.08;12.15;;;;;;;;;;5080854;28;20021;-83
2022/10/15 03:02:08;;;;;;;18.52;12.05;;;;;;;;;;5082068;28;20005;-81
2022/10/15 03:04:35;;;;;;;19.73;11.77;;;;;;;;;;5081923;28;20029;-83
2022/10/15 03:07:01;;;;;;;25.00;11.38;;;;;;;;;;5069004;28;20036;-84
2022/10/15 03:09:27;;;;;;;18.60;11.32;;;;;;;;;;5056385;28;20025;-84
2022/10/15 03:11:53;;;;;;;22.48;12.32;;;;;;;;;;5056340;28;20059;-85
2022/10/15 03:14:19;;;;;;;21.50;12.85;;;;;;;;;;5057461;28;20021;-85
2022/10/15 03:16:45;;;;;;;18.70;11.23;;;;;;;;;;5056105;28;20027;-84
2022/10/15 03:19:11;;;;;;;20.83;11.75;;;;;;;;;;5055906;28;20148;-84
2022/10/15 03:21:37;;;;;;;20.42;12.40;;;;;;;;;;5043004;28;20132;-83
2022/10/15 03:24:03;;;;;;;23.70;12.95;;;;;;;;;;5052490;28;20490;-83
2022/10/15 03:26:29;;;;;;;19.90;12.52;;;;;;;;;;5051344;28;20112;-84
2022/10/15 03:28:56;;;;;;;23.25;11.50;;;;;;;;;;5052000;28;20028;-84
2022/10/15 03:31:22;;;;;;;23.00;12.27;;;;;;;;;;5052158;28;20021;-84
2022/10/15 03:33:48;;;;;;;18.77;11.70;;;;;;;;;;5051981;28;20470;-84
2022/10/15 03:36:14;;;;;;;25.80;12.75;;;230.40;2252.80;;;;;;5052279;28;20040;-84
2022/10/15 03:38:39;;;;;;;20.85;13.43;;;205.60;2252.80;;;;;;5035594;28;20033;-84
2022/10/15 03:41:05;;;;;;;20.70;11.57;;;205.70;2252.80;;;;;;5035083;28;20037;-85
2022/10/15 03:43:31;;;;;;;18.38;11.07;;;205.60;2252.80;;;;;;5036775;28;20379;-84
2022/10/15 03:46:01;;;;;;;20.67;11.63;;;205.70;2252.80;;;;;;5035432;28;20059;-84
2022/10/15 03:48:27;;;;;;;16.23;9.93;;;205.70;2252.80;;;;;;5034534;28;20381;-84
2022/10/15 03:50:52;;;;;;;15.60;10.38;;;230.40;2252.80;;;;;;5035454;28;20033;-84
2022/10/15 03:53:18;;;;;;;18.38;11.05;;;205.70;2252.80;;;;;;5035430;28;20540;-84
2022/10/15 03:55:44;;;;;;;18.40;10.60;;;205.70;2252.80;;;;;;5034939;28;20049;-83
2022/10/15 03:58:10;;;;;;;15.30;10.68;;;205.70;2252.80;;;;;;5035292;28;20033;-82
2022/10/15 04:00:35;;;;;;;16.88;10.10;;;205.70;2252.80;;;;;;5035282;28;20037;-84
2022/10/15 04:03:01;;;;;;;14.30;11.45;;;205.70;2252.80;;;;;;5035014;28;20029;-84
2022/10/15 04:05:27;;;;;;;21.45;11.77;;;205.70;2252.80;;;;;;5035190;28;20029;-83
2022/10/15 04:07:53;;;;;;;17.13;12.13;;;205.70;2252.80;;;;;;5036354;28;20049;-84
2022/10/15 04:10:19;;;;;;;17.58;10.23;;;205.40;2252.80;;;;;;5034705;28;20472;-84
2022/10/15 04:12:45;;;;;;;18.90;10.43;;;205.50;2252.80;;;;;;5034835;28;20030;-85
2022/10/15 04:15:11;;;;;;;14.50;9.90;;;205.60;2252.80;;;;;;5034984;28;20091;-86
2022/10/15 04:17:37;;;;;;;22.27;10.90;;;205.50;2252.80;;;;;;5034683;28;20073;-85
2022/10/15 04:20:03;;;;;;;18.17;11.05;;;205.50;2252.80;;;;;;5036115;28;20034;-86
2022/10/15 04:22:29;;;;;;;21.00;12.32;;;205.50;2252.80;;;;;;5034493;28;20025;-86
2022/10/15 04:24:55;;;;;;;16.92;11.40;;;;;;;;;;5034525;28;20090;-86
2022/10/15 04:27:21;;;;;;;15.45;10.90;;;;;;;;;;5036036;28;20032;-83
2022/10/15 04:29:48;;;;;;;16.58;10.20;;;;;;;;;;5051065;28;20057;-84
2022/10/15 04:32:14;;;;;;;16.60;10.07;;;;;;;;;;5051411;28;20022;-84
2022/10/15 04:34:40;;;;;;;16.40;9.35;;;230.50;2252.80;;;;;;5035799;28;20478;-83
2022/10/15 04:37:05;;;;;;;14.40;9.75;;;205.70;2252.80;;;;;;5034403;28;20064;-84
2022/10/15 04:39:31;;;;;;;16.25;10.05;;;205.60;2252.80;;;;;;5034606;28;20029;-83
2022/10/15 04:41:57;;;;;;;18.27;10.90;;;205.60;2252.80;;;;;;5034474;28;20033;-83
2022/10/15 04:44:23;;;;;;;16.25;10.65;;;205.60;2252.80;;;;;;5035416;28;20022;-84
2022/10/15 04:46:48;;;;;;;17.67;10.73;;;205.50;2252.80;;;;;;5034358;28;20116;-84
2022/10/15 04:49:14;;;;;;;18.92;10.55;;;205.40;2252.80;;;;;;5034589;28;20056;-84
2022/10/15 04:51:40;;;;;;;22.08;11.90;;;205.50;2252.80;;;;;;5033936;28;20030;-83
2022/10/15 04:54:06;;;;;;;17.65;11.48;;;205.50;2252.80;;;;;;5034345;28;20093;-84
2022/10/15 04:56:32;;;;;;;17.60;12.13;;;;;;;;;;5034311;28;20025;-84
2022/10/15 04:58:58;;;;;;;19.15;12.60;;;;;;;;;;5049803;28;20026;-84
2022/10/15 05:01:24;;;;;;;24.60;13.65;;;;;;;;;;5035033;28;20381;-83
2022/10/15 05:03:50;;;;;;;19.95;12.55;;;;;;;;;;5050787;28;20075;-84
2022/10/15 05:06:18;;;;;;;20.25;11.93;;;;;;;;;;5050437;28;20013;-84
2022/10/15 05:08:44;;;;;;;15.85;10.80;;;;;;;;;;5050531;28;20030;-83
2022/10/15 05:11:11;;;;;;;17.65;10.95;;;;;;;;;;5050476;28;20029;-83
2022/10/15 05:13:38;;;;;;;19.52;10.63;;;;;;;;;;5050465;28;20064;-84
2022/10/15 05:16:15;;;;;;;24.33;12.68;;;;;;;;;;5035060;28;20098;-84
2022/10/15 05:18:42;;;;;;;27.98;14.43;;;;;;;;;;5050105;28;20116;-85
2022/10/15 05:21:08;;;;;;;36.47;19.88;;;;;;;;;;5050156;28;20125;-84
2022/10/15 05:23:35;;;;;;;28.42;18.60;;;;;;;;;;5050363;28;20021;-84
2022/10/15 05:26:06;;;;;;;32.58;16.13;;;;;;;;;;5050205;28;20108;-83
2022/10/15 05:28:32;;;;;;;25.63;13.90;;;;;;;;;;5050514;28;20022;-83
2022/10/15 05:31:08;;;;;;;20.88;13.43;;;;;;;;;;5050653;28;20057;-84
2022/10/15 05:33:35;;;;;;;19.30;12.02;;;;;;;;;;5050446;28;20029;-84
2022/10/15 05:36:10;;;;;;;22.42;14.48;;;;;;;;;;5050114;28;20018;-84
2022/10/15 05:38:36;;;;;;;19.40;13.65;;;;;;;;;;5050064;28;20109;-84
2022/10/15 05:41:02;;;;;;;19.85;12.10;;;;;;;;;;5049709;28;20116;-84
2022/10/15 05:43:28;;;;;;;20.55;12.75;;;;;;;;;;5049942;28;20025;-84
2022/10/15 05:45:55;;;;;;;18.98;12.23;;;;;;;;;;5049895;28;20032;-87
2022/10/15 05:48:21;;;;;;;20.58;13.68;;;;;;;;;;5049844;28;20461;-84
2022/10/15 05:50:47;;;;;;;19.95;12.82;;;;;;;;;;5049864;28;20083;-84
2022/10/15 05:53:13;;;;;;;21.08;13.75;;;;;;;;;;5050002;28;20045;-85
2022/10/15 05:55:39;;;;;;;19.60;13.63;;;;;;;;;;5049581;28;20470;-86
2022/10/15 05:58:05;;;;;;;21.20;14.88;;;;;;;;;;5049894;28;20112;-85
2022/10/15 06:00:32;;;;;;;23.17;14.82;;;;;;;;;;5049644;28;20037;-85
2022/10/15 06:02:58;;;;;;;18.85;12.43;;;;;;;;;;5049657;28;20021;-86
2022/10/15 06:05:24;;;;;;;17.23;11.52;;;;;;;;;;5049729;28;20029;-85
2022/10/15 06:07:50;;;;;;;15.95;11.27;;;;;;;;;;5049451;28;20536;-86
2022/10/15 06:10:17;;;;;;;17.02;11.10;;;;;;;;;;5049451;28;20078;-87
2022/10/15 06:12:48;;;;;;;18.73;12.13;;;;;;;;;;5053028;28;20112;-87
2022/10/15 06:15:14;;;;;;;14.77;11.07;;;;;;;;;;5032972;28;20022;-86
2022/10/15 06:17:40;;;;;;;16.48;12.13;;;;;;;;;;5031754;28;20025;-87
2022/10/15 06:20:06;;;;;;;16.20;11.80;;;;;;;;;;5032910;28;20029;-87
2022/10/15 06:22:33;;;;;;;16.48;12.25;;;;;;;;;;5034250;28;20022;-87
2022/10/15 06:24:59;;;;;;;18.63;11.43;;;;;;;;;;5033573;28;20097;-85
2022/10/15 06:27:25;;;;;;;18.15;12.50;;;;;;;;;;5065093;28;20025;-84
2022/10/15 06:29:51;;;;;;;17.25;11.65;;;;;;;;;;5065983;28;20136;-86
2022/10/15 06:32:17;;;;;;;16.90;10.13;;;;;;;;;;5048877;28;20059;-87
2022/10/15 06:34:44;;;;;;;16.95;11.23;;;;;;;;;;5034181;28;20013;-86
2022/10/15 06:37:10;;;;;;;15.27;11.05;;;230.40;2252.80;;;;;;5065962;28;20017;-86
2022/10/15 06:39:35;;;;;;;19.42;13.60;;;205.70;2252.80;;;;;;5032320;28;20045;-86
2022/10/15 06:42:01;;;;;;;18.02;12.75;;;205.70;2252.80;;;;;;5033671;28;20021;-87
2022/10/15 06:44:27;;;;;;;18.58;13.00;;;205.70;2252.80;;;;;;5032625;28;20037;-87
2022/10/15 06:46:53;;;;;;;22.35;14.32;;;205.70;2252.80;;;;;;5032456;28;20025;-86
2022/10/15 06:49:19;;;;;;;16.90;12.93;;;205.70;2252.80;;;;;;5032538;28;20029;-87
2022/10/15 06:51:44;;;;;;;21.95;14.75;;;205.70;2252.80;;;;;;5032649;28;20037;-85
2022/10/15 06:54:10;;;;;;;26.42;17.65;;;205.70;2252.80;;;;;;5031894;28;20021;-85
2022/10/15 06:56:36;;;;;;;22.65;16.02;;;205.70;2252.80;;;;;;5032530;28;20103;-85
2022/10/15 06:59:02;;;;;;;23.52;15.75;;;230.40;2252.80;;;;;;5032534;28;20040;-85
2022/10/15 07:01:27;;;;;;;23.23;15.23;;;230.50;2252.80;;;;;;5032244;28;20037;-88
2022/10/15 07:03:53;;;;;;;29.83;16.60;;;230.50;2252.80;;;;;;5033524;28;20109;-85
2022/10/15 07:06:19;;;;;;;23.38;16.17;;;230.50;2252.80;;;;;;5032328;28;20029;-84
2022/10/15 07:08:45;;;;;;;29.27;18.63;;;230.60;2252.80;;;;;;5032199;28;20112;-85
2022/10/15 07:11:11;;;;;;;29.27;18.13;;;230.50;2252.80;;;;;;5032249;28;20466;-85
2022/10/15 07:13:37;;;;;;;28.48;18.00;;;230.60;2252.80;;;;;;5033379;28;20109;-85
2022/10/15 07:16:12;;;;;;;41.92;28.05;;;230.70;2252.80;;;;;;5032416;28;20139;-84
2022/10/15 07:18:38;;;;;;;43.95;27.10;;;230.80;2252.80;;;;;;5033049;28;20026;-84
2022/10/15 07:21:06;;;;;;;26.20;19.35;;;256.00;2252.80;;;;;;5032995;28;20033;-83
2022/10/15 07:23:32;;;;;;;20.90;15.73;;;230.90;2252.80;;;;;;5033630;28;20025;-85
2022/10/15 07:25:59;;;;;;;18.20;14.90;;;230.90;2252.80;;;;;;5035650;28;20063;-87
2022/10/15 07:28:25;;;;;;;22.65;15.77;;;231.00;2252.80;;;;;;5035861;28;20028;-86
2022/10/15 07:30:52;;;;;;;23.42;17.02;;;231.00;2252.80;;;;;;5035995;28;20055;-85
2022/10/15 07:33:18;;;;;;;28.98;17.25;;;231.00;2252.80;;;;;;5069514;28;20034;-88
2022/10/15 07:35:44;;;;;;;27.27;17.38;;;231.20;2252.80;;;;;;5036373;28;20086;-89
2022/10/15 07:38:09;;;;;;;24.42;17.42;;;231.20;2252.80;;;;;;5036622;28;20033;-88
2022/10/15 07:40:35;;;;;;;30.25;18.35;;;231.20;2252.80;;;;;;5040355;28;20390;-89
2022/10/15 07:43:01;;;;;;;27.20;17.98;;;231.30;2252.80;;;;;;5056276;28;20470;-89
2022/10/15 07:45:27;;;;;;;28.38;19.15;;;256.00;2252.80;;;;;;5056040;28;20032;-89
2022/10/15 07:47:53;;;;;;;25.23;17.73;;;256.00;2252.80;;;;;;5055629;28;20025;-88
2022/10/15 07:50:19;;;;;;;32.45;20.00;;;256.10;2252.80;;;;;;5056384;28;20044;-89
2022/10/15 07:52:46;;;;;;;27.13;20.00;;;256.00;2252.80;;;;;;5055452;28;20056;-86
2022/10/15 07:55:12;;;;;;;30.48;20.40;;;256.10;2252.80;;;;;;5055670;28;20033;-87
2022/10/15 07:57:38;;;;;;;28.35;21.33;;;256.30;2252.80;;;;;;5055000;28;20021;-86
2022/10/15 08:00:05;;;;;;;30.73;20.98;;;256.30;2252.80;;;;;;5055427;28;20044;-86
2022/10/15 08:02:31;;;;;;;31.30;21.40;;;256.40;2252.80;;;;;;5055333;28;20530;-85
2022/10/15 08:04:57;;;;;;;41.67;24.63;;;256.60;2252.80;;;;;;5056615;28;20064;-85
2022/10/15 08:07:23;;;;;;;33.53;22.88;;;256.70;2252.80;;;;;;5055204;28;20036;-85
2022/10/15 08:09:48;;;;;;;35.42;24.73;;;256.90;2252.80;;;;;;5056625;28;20029;-85
2022/10/15 08:12:14;;;;;;;31.90;21.73;;;281.60;2278.40;;;;;;5055056;28;20525;-89
2022/10/15 08:14:40;;;;;;;33.63;20.23;;;281.70;2278.40;;;;;;5055046;28;20029;-84
2022/10/15 08:17:06;;;;;;;26.40;17.83;;;281.80;2278.40;;;;;;5056835;28;20061;-87
2022/10/15 08:19:32;;;;;;;26.17;18.25;;;281.90;2278.40;;;;;;5056226;28;20025;-86
2022/10/15 08:21:58;;;;;;;23.80;17.25;;;281.90;2278.40;;;;;;5058665;28;20025;-84
2022/10/15 08:24:24;;;;;;;25.52;18.95;;;282.20;2278.40;;;;;;5057369;28;20050;-88
2022/10/15 08:26:50;;;;;;;24.25;17.88;;;282.40;2278.40;;;;;;5055988;28;20025;-86
2022/10/15 08:29:16;;;;;;;28.08;16.58;;;307.20;2304.00;;;;;;5054643;28;20049;-87
2022/10/15 08:31:41;;;;;;;25.20;15.50;;;307.40;2304.00;;;;;;5054651;28;20535;-86
2022/10/15 08:34:08;;;;;;;22.92;17.92;;;307.50;2304.00;;;;;;5055531;28;20536;-86
2022/10/15 08:36:34;;;;;;;27.13;18.58;;;307.60;2304.00;;;;;;5054703;28;20025;-84
2022/10/15 08:39:00;;;;;;;23.08;13.98;;;307.80;2304.00;;;;;;5054387;28;20442;-86
2022/10/15 08:41:31;;;;;;;17.45;12.18;;;;;;;;;;5054147;28;20033;-88
2022/10/15 08:43:58;;;;;;;20.70;11.00;;;332.80;2329.60;;;;;;5054474;28;20059;-83
2022/10/15 08:46:38;;;;;;;16.00;11.10;;;332.90;2329.60;;;;;;5053997;28;20347;-83
2022/10/15 08:49:06;;;;;;;16.48;12.98;;;332.80;2329.60;;;;;;5055790;28;20079;-83
2022/10/15 08:51:32;;;;;;;21.25;13.20;;;332.90;2329.60;;;;;;5054087;28;20079;-84
2022/10/15 08:54:01;;;;;;;17.77;12.10;;;333.00;2329.60;;;;;;5053719;28;20068;-84
2022/10/15 08:56:32;;;;;;;19.05;12.95;;;333.30;2329.60;;;;;;5053418;28;20031;-86
2022/10/15 08:59:26;;;;;;;19.27;14.10;;;333.40;2329.60;;;;;;5053720;28;20025;-82
2022/10/15 09:01:58;;;;;;;18.02;12.63;;;;;;;;;;5053386;28;20040;-82
2022/10/15 09:04:27;;;;;;;20.58;10.63;;;;;;;;;;5053476;28;20104;-82
2022/10/15 09:07:02;;;;;;;17.15;9.25;;;;;;;;;;5053141;28;20053;-83
2022/10/15 09:09:35;;;;;;;15.40;10.40;;;;;;;;;;5053093;28;20075;-82
2022/10/15 09:12:37;;;;;;;15.32;11.23;;;358.80;2329.60;;;;;;5053262;28;20359;-82
2022/10/15 09:15:09;;;;;;;19.52;10.80;;;358.80;2329.60;;;;;;5054647;28;20021;-82
2022/10/15 09:17:36;;;;;;;17.00;10.43;;;;;;;;;;5053434;28;20027;-81
2022/10/15 09:20:05;;;;;;;18.95;10.75;;;;;;;;;;5053277;28;20474;-82
2022/10/15 09:22:33;;;;;;;17.67;12.48;;;;;;;;;;5031536;28;20386;-82
2022/10/15 09:24:59;;;;;;;20.88;13.05;;;;;;;;;;5065878;28;20026;-82
2022/10/15 09:27:35;;;;;;;17.55;12.40;;;;;;;;;;5065363;28;20029;-81
2022/10/15 09:30:06;;;;;;;16.35;11.25;;;;;;;;;;5066304;28;20049;-81
2022/10/15 09:32:32;;;;;;;16.02;10.52;;;;;;;;;;5066397;28;20032;-81
2022/10/15 09:35:20;;;;;;;16.77;10.95;;;;;;;;;;5066599;28;20029;-80
2022/10/15 09:37:54;;;;;;;16.02;9.77;;;;;;;;;;5066420;28;20116;-81
2022/10/15 09:40:27;;;;;;;11.45;8.68;;;;;;;;;;5032973;28;20120;-81
2022/10/15 09:42:54;;;;;;;21.63;9.80;;;;;;;;;;5032880;28;20018;-81
2022/10/15 09:45:24;;;;;;;14.07;9.45;;;;;;;;;;5032502;28;20025;-81
2022/10/15 09:47:51;;;;;;;13.75;9.45;;;;;;;;;;5032815;28;20075;-81
2022/10/15 09:50:17;;;;;;;16.25;10.52;;;;;;;;;;5042570;28;20037;-82
2022/10/15 09:52:59;;;;;;;12.90;8.77;;;;;;;;;;5052647;28;20132;-81
2022/10/15 09:55:39;;;;;;;13.35;8.65;;;;;;;;;;5051309;28;20017;-81
2022/10/15 09:58:14;;;;;;;10.30;7.95;;;;;;;;;;5052812;28;20021;-83
2022/10/15 10:00:47;;;;;;;12.55;7.93;;;;;;;;;;5052392;28;20032;-83
2022/10/15 10:03:14;;;;;;;13.20;7.60;;;;;;;;;;5052280;28;20036;-83
2022/10/15 10:05:42;;;;;;;10.70;6.57;;;;;;;;;;5052420;28;20032;-83
2022/10/15 10:08:23;;;;;;;8.95;6.40;;;;;;;;;;5052525;28;20029;-83
2022/10/15 10:10:56;;;;;;;12.20;7.20;;;;;;;;;;5052221;28;20386;-83
2022/10/15 10:13:29;;;;;;;13.38;6.95;;;;;;;;;;5052435;28;20021;-83
2022/10/15 10:15:56;;;;;;;11.82;8.65;;;;;;;;;;5052381;28;20058;-83
2022/10/15 10:18:24;;;;;;;11.00;8.15;;;;;;;;;;5052198;28;20056;-82
2022/10/15 10:20:53;;;;;;;13.20;9.23;;;;;;;;;;5052310;28;20397;-83
2022/10/15 10:23:23;;;;;;;15.43;8.80;;;;;;;;;;5052031;28;20472;-83
2022/10/15 10:25:50;;;;;;;14.00;8.52;;;;;;;;;;5052339;28;20481;-82
2022/10/15 10:28:19;;;;;;;11.68;7.63;;;;;;;;;;5052391;28;20048;-83
2022/10/15 10:31:11;;;;;;;17.15;10.52;;;;;;;;;;5051537;28;20136;-82
2022/10/15 10:33:44;;;;;;;47.22;16.45;;;;;;;;;;5051189;28;20071;-83
2022/10/15 10:36:30;;;;;;;13.35;9.10;;;;;;;;;;5052245;28;20032;-83
2022/10/15 10:39:18;;;;;;;15.77;9.88;;;;;;;;;;5051880;28;20049;-83
2022/10/15 10:41:53;;;;;;;12.80;8.23;;;;;;;;;;5052340;28;20052;-82
2022/10/15 10:44:21;;;;;;;21.23;11.50;;;;;;;;;;5051817;28;20017;-83
2022/10/15 10:47:02;;;;;;;12.30;8.90;;;;;;;;;;5052317;28;20048;-82
2022/10/15 10:49:32;;;;;;;14.02;8.23;;;;;;;;;;5052287;28;20017;-83
2022/10/15 10:51:58;;;;;;;13.43;9.25;;;;;;;;;;5051826;28;20051;-83
2022/10/15 10:54:26;;;;;;;15.02;8.80;;;;;;;;;;5053346;28;20029;-83
2022/10/15 10:56:52;;;;;;;13.90;8.68;;;;;;;;;;5052971;28;20021;-83
2022/10/15 10:59:18;;;;;;;8.93;7.63;;;;;;;;;;5071824;28;20013;-82
2022/10/15 11:01:44;;;;;;;17.70;11.93;;;;;;;;;;5081189;28;20032;-81
2022/10/15 11:04:19;;;;;;;14.02;7.45;;;;;;;;;;5074661;28;20028;-83
2022/10/15 11:07:08;;;;;;;9.82;6.75;;;;;;;;;;5056945;28;20025;-83
2022/10/15 11:09:50;;;;;;;12.57;7.63;;;;;;;;;;5051276;28;20029;-83
2022/10/15 11:12:16;;;;;;;8.70;6.25;;;;;;;;;;5055443;28;20025;-83
2022/10/15 11:14:51;;;;;;;10.48;6.90;;;;;;;;;;5055879;28;20513;-83
2022/10/15 11:17:23;;;;;;;9.45;6.78;;;;;;;;;;5055516;28;20063;-83
2022/10/15 11:20:02;;;;;;;11.32;8.20;;;;;;;;;;5056305;28;20480;-83
2022/10/15 11:22:55;;;;;;;10.93;6.97;;;512.80;2380.80;;;;;;5056868;28;20067;-83
2022/10/15 11:25:53;;;;;;;15.25;7.95;;;512.90;2355.20;;;;;;5055807;28;20028;-83
2022/10/15 11:28:27;;;;;;;10.25;7.57;;;;;;;;;;5055805;28;20033;-80
2022/10/15 11:31:03;;;;;;;43.63;14.57;;;;;;;;;;5056636;28;20494;-81
2022/10/15 11:33:29;;;;;;;17.75;9.27;;;;;;;;;;5055312;28;20530;-80
2022/10/15 11:36:13;;;;;;;12.00;7.32;;;;;;;;;;5055290;28;20021;-80
2022/10/15 11:39:09;;;;;;;10.77;6.15;;;;;;;;;;5055337;28;20112;-80
2022/10/15 11:41:38;;;;;;;10.77;6.28;;;;;;;;;;5002595;28;20041;-80
2022/10/15 11:44:04;;;;;;;8.27;6.13;;;;;;;;;;5055099;28;20086;-80
2022/10/15 11:46:54;;;;;;;13.75;7.20;;;588.80;2176.00;;;;;;5055082;28;20074;-81
2022/10/15 11:49:51;;;;;;;11.05;6.25;;;588.80;2124.80;;;;;;5054609;28;20028;-81
2022/10/15 11:52:30;;;;;;;7.80;5.60;;;;;;;;;;5056043;28;20025;-82
2022/10/15 11:55:07;;;;;;;9.15;5.93;;;;;;;;;;5054575;28;20082;-81
2022/10/15 11:57:34;;;;;;;8.48;5.78;;;589.20;2048.00;;;;;;5054844;28;20459;-80
2022/10/15 12:00:29;;;;;;;9.55;6.20;;;589.50;2073.60;;;;;;5054700;28;20037;-81
2022/10/15 12:02:58;;;;;;;9.15;5.78;;;589.50;2073.60;;;;;;5055662;28;20470;-81
2022/10/15 12:05:26;;;;;;;10.32;6.05;;;;;;;;;;5056230;28;20021;-81
2022/10/15 12:07:53;;;;;;;11.55;6.53;;;;;;;;;;5055938;28;20025;-81
2022/10/15 12:10:19;;;;;;;10.15;5.68;;;;;;;;;;5053687;28;20036;-81
2022/10/15 12:12:51;;;;;;;10.10;6.68;;;;;;;;;;5054624;28;20374;-81
2022/10/15 12:15:33;;;;;;;8.30;6.03;;;;;;;;;;5055197;28;20531;-81
2022/10/15 12:18:08;;;;;;;7.80;6.28;;;;;;;;;;5054493;28;20083;-81
2022/10/15 12:20:34;;;;;;;10.55;5.60;;;614.80;1971.20;;;;;;5054422;28;20033;-81
2022/10/15 12:23:02;;;;;;;9.00;5.38;;;614.70;1945.60;;;;;;5054055;28;20029;-82
2022/10/15 12:25:34;;;;;;;7.40;5.50;;;;;;;;;;5054180;28;20029;-82
2022/10/15 12:28:03;;;;;;;;;;;615.00;1920.00;;;;;;5054671;28;20018;-82
2022/10/15 12:30:35;;;;;;;8.43;5.40;;;;;;;;;;5053623;28;19923;-82
2022/10/15 12:33:02;;;;;;;13.13;6.30;;;;;;;;;;5054150;28;20421;-83
2022/10/15 12:35:38;;;;;;;10.20;5.80;;;;;;;;;;5055375;28;20049;-83
2022/10/15 12:38:23;;;;;;;10.63;5.90;;;615.20;1945.60;;;;;;5054995;28;20052;-82
2022/10/15 12:41:05;;;;;;;14.45;6.53;;;615.10;1971.20;;;;;;5054060;28;20041;-83
2022/10/15 12:43:33;;;;;;;9.55;5.75;;;;;;;;;;5053797;28;20036;-82
2022/10/15 12:46:00;;;;;;;9.98;5.97;;;;;;;;;;5053876;28;20021;-82
2022/10/15 12:48:35;;;;;;;9.88;6.95;;;;;;;;;;5053970;28;20030;-82
2022/10/15 12:51:16;;;;;;;8.23;6.15;;;;;;;;;;5054875;28;20025;-82
2022/10/15 12:53:43;;;;;;;10.20;5.78;;;;;;;;;;5053745;28;20561;-82
2022/10/15 12:56:10;;;;;;;10.13;6.10;;;;;;;;;;5054746;28;20040;-82
2022/10/15 12:58:37;;;;;;;11.05;6.60;;;;;;;;;;5054255;28;20025;-82
2022/10/15 13:01:26;;;;;;;10.73;7.25;;;;;;;;;;5054775;28;20039;-82
2022/10/15 13:03:53;;;;;;;10.10;6.45;;;;;;;;;;5054615;28;20016;-82
2022/10/15 13:06:22;;;;;;;8.20;5.30;;;;;;;;;;5053210;28;20021;-82
2022/10/15 13:09:12;;;;;;;8.43;6.45;;;;;;;;;;5053446;28;20021;-82
2022/10/15 13:11:55;;;;;;;10.18;6.53;;;;;;;;;;5045541;28;20090;-82
2022/10/15 13:14:21;;;;;;;8.52;6.45;;;;;;;;;;5053332;28;20475;-82
2022/10/15 13:16:49;;;;;;;8.77;6.15;;;;;;;;;;5053203;28;20036;-82
2022/10/15 13:19:34;;;;;;;7.60;5.63;;;;;;;;;;5052879;28;20060;-82
2022/10/15 13:22:01;;;;;;;8.30;5.97;;;;;;;;;;5038003;28;20029;-81
2022/10/15 13:24:29;;;;;;;9.63;5.90;;;;;;;;;;5032880;28;20043;-82
2022/10/15 13:26:56;;;;;;;9.13;6.65;;;;;;;;;;5032449;28;20426;-81
2022/10/15 13:29:23;;;;;;;13.40;6.38;;;;;;;;;;5032667;28;20045;-82
2022/10/15 13:31:50;;;;;;;10.65;6.15;;;;;;;;;;5032988;28;20035;-81
2022/10/15 13:34:19;;;;;;;10.38;6.35;;;;;;;;;;5032707;28;20103;-82
2022/10/15 13:36:45;;;;;;;8.75;5.70;;;;;;;;;;5033133;28;20021;-82